Time;durP1;ratioP1;P1;durP2;ratioP2;P2;SDS_P1;SDS_P2;PMS_P1;PMS_P2;Temp;Humidity;BMP_temperature;BMP_pressure;BME280_temperature;BME280_humidity;BME280_pressure;Samples;Min_cycle;Max_cycle;Signal;HPM_P1;HPM_P2
2020/12/24 00:02:14;;;;;;;1.70;1.20;;;;;;;11.91;74.27;95426.97;4769348;29;20150;-43
2020/12/24 00:04:41;;;;;;;2.67;1.33;;;;;;;11.99;73.88;95416.28;4768739;30;20048;-43
2020/12/24 00:07:08;;;;;;;2.03;1.15;;;;;;;12.03;74.07;95407.13;4769031;30;20052;-43
2020/12/24 00:09:34;;;;;;;2.72;1.30;;;;;;;12.10;73.73;95398.34;4768501;30;20068;-42
2020/12/24 00:12:01;;;;;;;2.97;1.30;;;;;;;12.13;73.66;95394.94;4769020;30;20463;-40
2020/12/24 00:14:27;;;;;;;1.73;1.10;;;;;;;11.79;74.42;95374.78;4768853;30;20051;-40
2020/12/24 00:16:53;;;;;;;2.20;1.45;;;;;;;11.70;74.87;95381.19;4769221;30;20066;-41
2020/12/24 00:19:19;;;;;;;3.38;1.67;;;;;;;11.81;75.03;95358.97;4768387;30;20060;-42
2020/12/24 00:21:46;;;;;;;1.67;1.38;;;;;;;11.66;75.48;95355.91;4768917;30;20052;-40
2020/12/24 00:24:14;;;;;;;1.77;0.90;;;;;;;11.46;73.83;95338.81;4768596;30;20143;-42
2020/12/24 00:26:40;;;;;;;1.42;0.90;;;;;;;11.69;72.71;95354.44;4769195;30;20480;-43
2020/12/24 00:29:08;;;;;;;1.10;0.85;;;;;;;11.69;73.25;95362.56;4768310;30;20121;-43
2020/12/24 00:31:38;;;;;;;1.67;1.00;;;;;;;11.66;74.14;95366.75;4768865;30;20138;-42
2020/12/24 00:34:05;;;;;;;1.27;0.90;;;;;;;11.56;74.10;95378.13;4768415;30;20063;-41
2020/12/24 00:36:32;;;;;;;1.17;1.00;;;;;;;11.49;74.70;95385.31;4768328;30;20147;-40
2020/12/24 00:38:59;;;;;;;1.83;1.20;;;;;;;11.45;75.38;95375.19;4768057;30;20217;-41
2020/12/24 00:41:25;;;;;;;2.22;1.15;;;;;;;11.35;75.71;95383.06;4768409;30;20465;-41
2020/12/24 00:43:52;;;;;;;2.28;1.00;;;;;;;11.49;75.15;95369.06;4768421;30;20478;-41
2020/12/24 00:46:19;;;;;;;1.58;1.05;;;;;;;11.49;75.24;95363.66;4768595;30;20434;-41
2020/12/24 00:48:46;;;;;;;1.05;0.80;;;;;;;11.61;74.45;95367.03;4766578;30;20047;-42
2020/12/24 00:51:12;;;;;;;1.70;1.20;;;;;;;11.68;74.20;95361.00;4768429;30;20425;-43
2020/12/24 00:53:38;;;;;;;1.60;0.93;;;;;;;11.62;74.30;95374.03;4768381;30;20142;-43
2020/12/24 00:56:07;;;;;;;1.23;0.93;;;;;;;11.57;74.30;95359.94;4767798;30;20128;-42
2020/12/24 00:58:37;;;;;;;2.83;1.00;;;;;;;11.51;74.81;95377.63;4767527;30;20291;-44
2020/12/24 01:01:05;;;;;;;1.48;0.90;;;;;;;11.45;75.06;95379.81;4768145;30;20055;-41
2020/12/24 01:03:32;;;;;;;1.52;1.00;;;;;;;11.64;74.61;95398.06;4769348;30;20083;-42
2020/12/24 01:05:58;;;;;;;2.47;1.08;;;;;;;11.52;74.49;95379.19;4768923;29;20063;-43
2020/12/24 01:08:25;;;;;;;2.45;1.40;;;;;;;11.56;75.16;95377.34;4768320;30;20154;-43
2020/12/24 01:10:52;;;;;;;3.13;1.40;;;;;;;11.36;75.84;95371.88;4768429;30;20066;-45
2020/12/24 01:13:19;;;;;;;2.08;1.10;;;;;;;11.43;75.41;95366.63;4768718;30;20060;-44
2020/12/24 01:15:46;;;;;;;2.03;1.00;;;;;;;11.55;74.89;95367.66;4768678;30;20052;-42
2020/12/24 01:18:12;;;;;;;1.30;1.10;;;;;;;11.69;74.71;95378.81;4770552;30;20060;-44
2020/12/24 01:20:38;;;;;;;2.55;1.30;;;;;;;11.75;74.70;95384.75;4772554;30;20081;-45
2020/12/24 01:23:05;;;;;;;3.05;1.35;;;;;;;11.75;74.28;95380.13;4772664;30;20143;-42
2020/12/24 01:25:32;;;;;;;2.50;1.77;;;;;;;11.50;75.19;95374.13;4772111;30;20147;-42
2020/12/24 01:27:59;;;;;;;3.70;1.50;;;;;;;11.33;75.70;95372.56;4769810;30;20070;-42
2020/12/24 01:30:25;;;;;;;1.58;1.13;;;;;;;11.43;75.04;95374.75;4771849;30;20059;-43
2020/12/24 01:32:52;;;;;;;3.38;1.48;;;;;;;11.40;75.61;95388.19;4771751;30;20071;-42
2020/12/24 01:35:19;;;;;;;3.80;1.50;;;;;;;11.25;75.89;95389.00;4771370;30;20139;-43
2020/12/24 01:37:46;;;;;;;2.30;1.60;;;;;;;10.89;77.71;95391.59;4771033;30;20098;-42
2020/12/24 01:40:13;;;;;;;3.00;1.90;;;;;;;10.70;78.51;95396.88;4771443;30;20441;-43
2020/12/24 01:42:39;;;;;;;1.98;1.40;;;;;;;10.71;78.63;95395.75;4771802;30;20066;-42
2020/12/24 01:45:06;;;;;;;1.65;1.08;;;;;;;10.84;78.11;95396.47;4770160;30;20075;-45
2020/12/24 01:47:34;;;;;;;1.90;1.38;;;;;;;10.88;77.94;95394.63;4770938;29;20056;-41
2020/12/24 01:50:00;;;;;;;2.35;1.52;;;;;;;10.85;78.11;95395.31;4771997;30;20578;-40
2020/12/24 01:52:55;;;;;;;1.85;1.30;;;;;;;10.91;78.16;95383.91;4771338;30;20113;-43
2020/12/24 01:55:22;;;;;;;2.78;1.40;;;;;;;10.88;78.11;95390.00;4769466;30;20510;-41
2020/12/24 01:57:52;;;;;;;2.10;1.25;;;;;;;10.98;77.49;95381.41;4770303;30;20538;-41
2020/12/24 02:00:19;;;;;;;4.38;1.73;;;;;;;11.10;77.41;95382.44;4771492;30;20139;-42
2020/12/24 02:02:45;;;;;;;2.45;1.40;;;;;;;11.14;77.06;95375.97;4771141;30;20131;-43
2020/12/24 02:05:12;;;;;;;3.10;1.73;;;;;;;11.04;77.08;95365.66;4771179;30;20081;-41
2020/12/24 02:07:38;;;;;;;2.67;1.60;;;;;;;11.14;77.09;95361.66;4770417;30;20150;-42
2020/12/24 02:10:04;;;;;;;2.70;1.70;;;;;;;11.16;76.85;95372.94;4770580;30;20063;-42
2020/12/24 02:12:32;;;;;;;3.00;1.83;;;;;;;10.94;77.94;95377.78;4770537;30;20495;-41
2020/12/24 02:14:59;;;;;;;2.92;1.92;;;;;;;10.70;77.62;95364.41;4770774;30;20054;-42
2020/12/24 02:17:25;;;;;;;2.95;1.70;;;;;;;10.99;77.04;95372.13;4769931;30;20059;-42
2020/12/24 02:19:51;;;;;;;2.40;1.63;;;;;;;10.88;77.13;95375.69;4770752;30;20079;-42
2020/12/24 02:22:18;;;;;;;1.95;1.40;;;;;;;10.90;76.60;95360.69;4770475;30;20446;-42
2020/12/24 02:24:44;;;;;;;2.55;1.48;;;;;;;10.94;76.38;95366.19;4770390;30;20471;-41
2020/12/24 02:27:11;;;;;;;2.33;1.48;;;;;;;11.05;76.05;95371.84;4769501;30;20056;-43
2020/12/24 02:29:38;;;;;;;3.20;1.70;;;;;;;11.12;76.20;95356.59;4769871;30;20143;-43
2020/12/24 02:32:04;;;;;;;2.45;1.65;;;;;;;11.08;75.82;95354.91;4770611;30;20054;-43
2020/12/24 02:34:32;;;;;;;2.97;1.83;;;;;;;11.17;75.86;95359.03;4771321;30;20401;-43
2020/12/24 02:36:58;;;;;;;4.28;2.30;;;;;;;11.09;75.54;95345.69;4770801;30;20056;-43
2020/12/24 02:39:24;;;;;;;3.22;2.25;;;;;;;11.08;75.90;95344.09;4770311;30;20056;-42
2020/12/24 02:41:51;;;;;;;2.40;1.50;;;;;;;10.98;75.95;95348.91;4771157;30;20422;-43
2020/12/24 02:44:17;;;;;;;2.97;2.20;;;;;;;10.95;76.38;95349.63;4769965;30;20058;-43
2020/12/24 02:46:44;;;;;;;4.07;2.30;;;;;;;11.03;75.98;95344.38;4770420;30;20062;-42
2020/12/24 02:49:10;;;;;;;2.90;2.15;;;;;;;11.02;76.38;95340.88;4769741;30;20085;-44
2020/12/24 02:51:36;;;;;;;3.28;1.92;;;;;;;11.00;76.36;95343.91;4769055;30;20093;-43
2020/12/24 02:54:03;;;;;;;3.33;2.17;;;;;;;11.02;76.04;95329.25;4769908;29;20052;-44
2020/12/24 02:56:29;;;;;;;4.80;3.42;;;;;;;11.12;75.79;95328.75;4770294;30;20527;-43
2020/12/24 02:58:56;;;;;;;3.38;1.90;;;;;;;11.14;75.18;95319.13;4769972;30;20059;-44
2020/12/24 03:01:22;;;;;;;3.45;2.15;;;;;;;11.05;75.70;95323.13;4768793;30;20070;-45
2020/12/24 03:03:48;;;;;;;3.30;2.00;;;;;;;10.89;76.28;95323.94;4770311;30;20056;-43
2020/12/24 03:06:15;;;;;;;3.95;1.85;;;;;;;10.74;76.79;95322.00;4770335;30;20063;-45
2020/12/24 03:08:41;;;;;;;2.63;1.60;;;;;;;10.78;76.22;95314.75;4769166;30;20398;-42
2020/12/24 03:11:07;;;;;;;2.92;1.73;;;;;;;10.61;77.09;95315.09;4770186;30;20525;-43
2020/12/24 03:13:34;;;;;;;4.78;1.60;;;;;;;10.68;77.11;95315.28;4770157;29;20063;-40
2020/12/24 03:16:00;;;;;;;3.40;1.85;;;;;;;10.68;77.31;95309.84;4769106;30;20207;-41
2020/12/24 03:18:27;;;;;;;2.50;1.70;;;;;;;10.86;76.81;95308.41;4769918;29;20421;-40
2020/12/24 03:20:53;;;;;;;1.90;1.42;;;;;;;10.92;76.06;95308.91;4770135;30;20142;-39
2020/12/24 03:23:19;;;;;;;2.47;1.60;;;;;;;10.92;76.02;95309.72;4788896;24;20914;-40
2020/12/24 03:25:46;;;;;;;1.90;1.40;;;;;;;10.76;76.42;95301.59;4771403;29;20142;-43
2020/12/24 03:28:12;;;;;;;2.92;1.70;;;;;;;10.60;77.30;95308.13;4769551;30;20060;-42
2020/12/24 03:30:38;;;;;;;2.13;1.40;;;;;;;10.69;77.26;95303.31;4769929;30;20066;-41
2020/12/24 03:33:05;;;;;;;3.38;1.40;;;;;;;10.70;76.97;95297.56;4769731;29;20109;-41
2020/12/24 03:35:31;;;;;;;2.55;1.20;;;;;;;10.48;77.65;95298.91;4769840;30;20056;-40
2020/12/24 03:37:58;;;;;;;2.55;1.38;;;;;;;10.37;78.92;95316.03;4769169;30;20144;-41
2020/12/24 03:40:24;;;;;;;1.88;1.30;;;;;;;10.02;79.32;95306.53;4768145;30;20056;-41
2020/12/24 03:42:50;;;;;;;2.10;1.40;;;;;;;9.98;80.24;95310.28;4769624;30;20151;-41
2020/12/24 03:45:17;;;;;;;1.88;1.02;;;;;;;10.00;79.41;95319.59;4769602;30;20054;-42
2020/12/24 03:47:43;;;;;;;1.25;0.98;;;;;;;9.94;79.94;95315.56;4768994;30;20060;-44
2020/12/24 03:50:10;;;;;;;2.17;0.70;;;;;;;9.68;79.76;95312.50;4769489;30;20119;-45
2020/12/24 03:52:36;;;;;;;1.15;0.85;;;;;;;9.55;80.48;95312.53;4769758;30;20067;-44
2020/12/24 03:55:02;;;;;;;0.90;0.70;;;;;;;9.47;81.13;95313.44;4769261;30;20511;-45
2020/12/24 03:57:29;;;;;;;1.15;0.60;;;;;;;9.84;79.42;95307.94;4767931;29;20080;-44
2020/12/24 03:59:55;;;;;;;0.70;0.50;;;;;;;9.78;79.44;95299.31;4769798;30;20138;-40
2020/12/24 04:02:22;;;;;;;1.55;0.30;;;;;;;9.59;78.22;95305.31;4769659;30;20426;-40
2020/12/24 04:04:48;;;;;;;0.57;0.40;;;;;;;9.36;79.02;95304.25;4769366;30;20052;-40
2020/12/24 04:07:14;;;;;;;0.32;0.20;;;;;;;9.49;78.45;95303.09;4769188;30;20059;-44
2020/12/24 04:09:41;;;;;;;0.30;0.30;;;;;;;9.48;78.26;95315.00;4769189;30;20138;-40
2020/12/24 04:12:08;;;;;;;0.80;0.30;;;;;;;9.51;77.63;95311.63;4769515;30;20060;-41
2020/12/24 04:14:37;;;;;;;1.38;0.30;;;;;;;9.52;77.53;95318.63;4769424;30;20059;-40
2020/12/24 04:17:03;;;;;;;0.50;0.20;;;;;;;9.39;77.71;95308.94;4769354;30;20135;-40
2020/12/24 04:19:30;;;;;;;0.57;0.20;;;;;;;9.33;77.61;95323.81;4769618;30;20066;-40
2020/12/24 04:21:56;;;;;;;0.20;0.17;;;;;;;9.09;78.16;95325.38;4769822;30;20059;-39
2020/12/24 04:24:22;;;;;;;0.68;0.30;;;;;;;9.16;77.87;95327.50;4769051;30;20554;-39
2020/12/24 04:26:49;;;;;;;0.75;0.30;;;;;;;9.10;78.64;95337.75;4769434;30;20062;-40
2020/12/24 04:29:15;;;;;;;0.80;0.30;;;;;;;9.05;78.75;95343.38;4768352;30;20631;-47
2020/12/24 04:31:42;;;;;;;1.63;0.25;;;;;;;8.79;79.35;95338.28;4768963;30;20127;-41
2020/12/24 04:34:10;;;;;;;0.43;0.20;;;;;;;8.82;79.54;95353.00;4767705;30;20151;-44
2020/12/24 04:36:36;;;;;;;0.20;0.20;;;;;;;9.00;79.05;95354.41;4769338;30;20419;-42
2020/12/24 04:39:04;;;;;;;0.10;0.10;;;;;;;8.74;80.12;95343.91;4768580;30;20142;-39
2020/12/24 04:41:32;;;;;;;0.20;0.20;;;;;;;8.86;79.67;95340.44;4768026;30;20060;-39
2020/12/24 04:44:01;;;;;;;1.83;0.10;;;;;;;8.78;79.38;95341.31;4769073;30;20079;-40
2020/12/24 04:46:28;;;;;;;1.25;0.30;;;;;;;8.91;78.40;95345.63;4768872;30;20066;-39
2020/12/24 04:48:57;;;;;;;0.40;0.20;;;;;;;8.92;78.19;95352.56;4768514;30;20083;-40
2020/12/24 04:51:25;;;;;;;0.73;0.28;;;;;;;8.70;78.75;95339.50;4767875;30;20534;-39
2020/12/24 04:53:52;;;;;;;0.52;0.20;;;;;;;8.52;79.46;95349.69;4768900;30;20056;-39
2020/12/24 04:56:19;;;;;;;1.65;0.20;;;;;;;8.56;78.87;95342.50;4768951;30;20059;-42
2020/12/24 04:58:45;;;;;;;0.28;0.20;;;;;;;8.51;79.47;95354.28;4768423;30;20059;-40
2020/12/24 05:01:16;;;;;;;0.20;0.20;;;;;;;8.85;78.79;95352.34;4769042;30;20571;-39
2020/12/24 05:03:43;;;;;;;1.35;0.25;;;;;;;8.79;77.97;95354.47;4769326;30;20570;-39
2020/12/24 05:06:14;;;;;;;0.20;0.20;;;;;;;9.00;77.31;95353.59;4769031;30;20062;-40
2020/12/24 05:08:41;;;;;;;0.20;0.20;;;;;;;8.75;77.38;95352.78;4767268;30;20052;-39
2020/12/24 05:11:10;;;;;;;0.80;0.40;;;;;;;8.71;78.06;95357.25;4768907;30;20111;-40
2020/12/24 05:13:36;;;;;;;1.00;0.25;;;;;;;8.49;78.05;95367.31;4768446;29;20064;-42
2020/12/24 05:16:21;;;;;;;0.20;0.20;;;;;;;8.17;79.54;95356.16;4768561;30;20056;-41
2020/12/24 05:18:48;;;;;;;0.10;0.10;;;;;;;8.14;78.92;95361.41;4768166;30;20138;-40
2020/12/24 05:21:34;;;;;;;0.80;0.30;;;;;;;8.18;79.02;95357.72;4768526;30;20348;-43
2020/12/24 05:24:00;;;;;;;0.43;0.30;;;;;;;8.10;79.75;95361.28;4768362;30;20060;-44
2020/12/24 05:26:29;;;;;;;0.28;0.10;;;;;;;7.99;79.65;95359.31;4768691;30;20477;-42
2020/12/24 05:29:09;;;;;;;1.38;0.15;;;;;;;8.07;77.98;95371.94;4768155;30;20048;-41
2020/12/24 05:31:36;;;;;;;0.13;0.13;;;;;;;7.90;79.80;95372.88;4768600;30;20382;-41
2020/12/24 05:34:02;;;;;;;0.77;0.25;;;;;;;8.12;77.15;95374.44;4768302;30;20056;-42
2020/12/24 05:36:29;;;;;;;0.43;0.20;;;;;;;8.02;77.58;95372.91;4768404;30;20572;-42
2020/12/24 05:38:55;;;;;;;0.30;0.10;;;;;;;7.91;78.19;95379.81;4768724;30;20541;-42
2020/12/24 05:41:36;;;;;;;2.45;1.45;;;;;;;7.83;78.76;95392.25;4768782;29;20396;-45
2020/12/24 05:44:09;;;;;;;0.20;0.20;;;;;;;7.58;79.52;95387.81;4767313;29;20062;-43
2020/12/24 05:46:46;;;;;;;0.70;0.22;;;;;;;7.46;80.20;95385.81;4768313;30;20430;-42
2020/12/24 05:49:18;;;;;;;0.60;0.20;;;;;;;7.66;79.31;95390.44;4767920;30;20055;-45
2020/12/24 05:52:02;;;;;;;0.00;0.00;;;;;;;7.66;79.57;95384.25;4768440;30;20064;-43
2020/12/24 05:54:30;;;;;;;1.02;0.22;;;;;;;7.54;79.15;95386.88;4768189;30;20192;-42
2020/12/24 05:56:59;;;;;;;0.85;0.20;;;;;;;7.41;79.33;95394.88;4766987;30;20063;-44
2020/12/24 05:59:27;;;;;;;0.50;0.30;;;;;;;7.41;79.07;95402.13;4767646;30;20150;-47
2020/12/24 06:02:16;;;;;;;0.30;0.25;;;;;;;7.25;79.21;95402.69;4768281;30;20478;-43
2020/12/24 06:04:45;;;;;;;0.50;0.10;;;;;;;7.39;76.53;95393.63;4770886;30;20064;-42
2020/12/24 06:07:16;;;;;;;1.23;0.15;;;;;;;7.41;78.15;95404.81;4771555;30;20138;-40
2020/12/24 06:09:44;;;;;;;0.45;0.28;;;;;;;7.44;77.07;95388.03;4771182;30;20327;-39
2020/12/24 06:12:25;;;;;;;0.15;0.10;;;;;;;7.47;76.31;95398.97;4771715;30;20055;-39
2020/12/24 06:14:53;;;;;;;0.40;0.30;;;;;;;7.43;75.17;95387.25;4771826;30;20060;-41
2020/12/24 06:17:22;;;;;;;0.90;0.40;;;;;;;7.40;76.65;95379.81;4770915;30;20134;-42
2020/12/24 06:19:49;;;;;;;0.77;0.30;;;;;;;7.37;76.82;95379.69;4771589;30;20138;-39
2020/12/24 06:22:17;;;;;;;0.75;0.30;;;;;;;7.25;76.72;95391.16;4770174;30;20066;-41
2020/12/24 06:24:46;;;;;;;2.15;0.40;;;;;;;7.38;76.36;95374.00;4771016;30;20060;-41
2020/12/24 06:27:24;;;;;;;0.40;0.32;;;;;;;7.24;75.92;95368.81;4771146;30;20063;-42
2020/12/24 06:29:57;;;;;;;1.35;0.30;;;;;;;7.18;76.21;95372.00;4771350;30;20142;-39
2020/12/24 06:32:24;;;;;;;0.93;0.30;;;;;;;6.98;76.02;95362.78;4771494;30;20047;-43
2020/12/24 06:34:51;;;;;;;3.05;0.60;;;;;;;6.96;75.36;95351.56;4770916;30;20066;-42
2020/12/24 06:37:19;;;;;;;0.45;0.30;;;;;;;6.90;75.87;95347.47;4770513;30;20062;-42
2020/12/24 06:39:50;;;;;;;1.52;0.30;;;;;;;6.92;74.96;95346.03;4770951;30;20146;-40
2020/12/24 06:42:35;;;;;;;1.23;0.30;;;;;;;6.99;74.33;95350.91;4770663;30;20067;-40
2020/12/24 06:45:03;;;;;;;0.63;0.20;;;;;;;7.01;74.61;95346.78;4771066;30;20060;-41
2020/12/24 06:47:30;;;;;;;1.00;0.20;;;;;;;6.95;74.19;95347.28;4771367;30;20134;-41
2020/12/24 06:49:56;;;;;;;3.15;0.50;;;;;;;7.05;72.54;95349.59;4770884;29;20063;-42
2020/12/24 06:52:32;;;;;;;3.00;0.47;;;;;;;7.01;72.12;95340.59;4770784;30;20101;-40
2020/12/24 06:55:17;;;;;;;1.63;0.30;;;;;;;7.07;73.06;95333.94;4770757;29;20048;-43
2020/12/24 06:57:44;;;;;;;0.65;0.20;;;;;;;7.01;72.15;95319.88;4770069;30;20059;-41
2020/12/24 07:00:21;;;;;;;1.85;0.32;;;;;;;7.04;71.33;95326.50;4770448;30;20079;-42
2020/12/24 07:02:49;;;;;;;1.50;0.45;;;;;;;7.17;72.33;95330.88;4770890;30;20491;-41
2020/12/24 07:05:40;;;;;;;0.93;0.40;;;;;;;7.17;71.58;95330.88;4770484;30;20417;-41
2020/12/24 07:08:08;;;;;;;0.70;0.32;;;;;;;6.93;71.94;95323.41;4769972;29;20081;-41
2020/12/24 07:10:48;;;;;;;1.52;0.70;;;;;;;6.87;72.18;95332.75;4770157;30;20411;-42
2020/12/24 07:13:37;;;;;;;2.03;0.50;;;;;;;6.89;72.45;95352.06;4770915;30;20060;-41
2020/12/24 07:16:05;;;;;;;1.42;0.80;;;;;;;6.82;72.93;95345.59;4769433;30;20133;-40
2020/12/24 07:18:34;;;;;;;2.38;0.45;;;;;;;6.70;72.25;95343.59;4769325;30;20098;-40
2020/12/24 07:21:08;;;;;;;1.10;0.30;;;;;;;6.91;72.10;95331.00;4770342;30;20142;-41
2020/12/24 07:23:36;;;;;;;0.82;0.40;;;;;;;6.84;71.85;95332.63;4770213;30;20063;-41
2020/12/24 07:26:04;;;;;;;0.90;0.45;;;;;;;6.88;71.32;95322.78;4770190;30;20075;-41
2020/12/24 07:28:33;;;;;;;2.97;0.47;;;;;;;6.87;71.30;95310.47;4769279;30;20060;-42
2020/12/24 07:31:02;;;;;;;1.08;0.50;;;;;;;7.02;71.16;95318.78;4769916;29;20051;-40
2020/12/24 07:33:29;;;;;;;1.45;0.43;;;;;;;6.95;71.11;95323.06;4768659;30;20139;-40
2020/12/24 07:35:56;;;;;;;0.85;0.40;;;;;;;7.03;70.87;95314.19;4769984;30;20083;-40
2020/12/24 07:38:25;;;;;;;3.00;0.40;;;;;;;6.94;71.07;95298.09;4769311;29;20134;-40
2020/12/24 07:40:52;;;;;;;2.85;0.50;;;;;;;6.94;69.99;95295.41;4770083;30;20458;-41
2020/12/24 07:43:18;;;;;;;2.05;0.40;;;;;;;6.86;69.61;95292.75;4769764;30;20083;-42
2020/12/24 07:45:45;;;;;;;1.75;0.73;;;;;;;6.97;68.80;95284.00;4769964;30;20048;-40
2020/12/24 07:48:13;;;;;;;1.92;0.30;;;;;;;6.79;68.86;95299.44;4769141;30;20055;-39
2020/12/24 07:50:39;;;;;;;2.25;0.70;;;;;;;6.87;69.12;95294.34;4769911;30;20483;-39
2020/12/24 07:53:20;;;;;;;0.93;0.60;;;;;;;7.10;68.49;95298.31;4770178;30;20056;-42
2020/12/24 07:55:47;;;;;;;3.72;0.50;;;;;;;7.11;67.76;95305.28;4769418;29;20051;-42
2020/12/24 07:58:15;;;;;;;1.55;0.40;;;;;;;7.10;67.69;95298.31;4769253;30;20060;-40
2020/12/24 08:00:47;;;;;;;1.65;0.30;;;;;;;7.05;67.31;95293.13;4770760;30;20162;-41
2020/12/24 08:03:18;;;;;;;5.30;0.90;;;;;;;7.17;66.89;95297.81;4769895;30;20067;-43
2020/12/24 08:05:46;;;;;;;1.23;0.40;;;;;;;7.23;67.09;95293.81;4769962;30;20142;-40
2020/12/24 08:08:13;;;;;;;3.05;0.50;;;;;;;7.07;66.95;95288.22;4769000;30;20056;-42
2020/12/24 08:10:41;;;;;;;1.63;0.50;;;;;;;7.12;66.75;95288.03;4769824;30;20062;-42
2020/12/24 08:13:09;;;;;;;1.98;0.60;;;;;;;7.23;67.46;95291.13;4769364;30;20056;-41
2020/12/24 08:15:40;;;;;;;1.60;0.52;;;;;;;7.37;66.32;95286.28;4769544;30;20088;-40
2020/12/24 08:18:21;;;;;;;2.15;0.50;;;;;;;7.42;66.18;95278.03;4767897;30;20059;-42
2020/12/24 08:20:58;;;;;;;1.95;0.68;;;;;;;7.40;66.27;95284.84;4769482;30;20067;-42
2020/12/24 08:23:49;;;;;;;2.03;0.50;;;;;;;7.22;65.39;95274.19;4769674;30;20113;-40
2020/12/24 08:26:16;;;;;;;2.30;0.50;;;;;;;7.27;66.20;95270.53;4769136;30;20150;-40
2020/12/24 08:28:50;;;;;;;2.78;0.50;;;;;;;7.36;65.78;95270.47;4769253;30;20432;-42
2020/12/24 08:31:18;;;;;;;1.38;0.43;;;;;;;7.36;65.97;95275.84;4769148;29;20075;-48
2020/12/24 08:33:49;;;;;;;3.15;0.50;;;;;;;7.44;65.09;95269.59;4769015;30;20094;-46
2020/12/24 08:36:18;;;;;;;0.98;0.40;;;;;;;7.31;65.26;95257.97;4768997;29;20085;-42
2020/12/24 08:38:46;;;;;;;0.43;0.40;;;;;;;7.24;65.53;95257.72;4767354;30;20115;-42
2020/12/24 08:41:25;;;;;;;2.28;0.60;;;;;;;7.24;65.72;95265.78;4769064;30;20055;-42
2020/12/24 08:43:55;;;;;;;1.80;0.40;;;;;;;7.31;64.70;95255.28;4753077;30;20054;-44
2020/12/24 08:46:22;;;;;;;1.83;0.60;;;;;;;7.27;65.41;95243.63;4768481;30;20052;-42
2020/12/24 08:48:49;;;;;;;1.08;0.63;;;;;;;7.13;65.47;95238.50;4768735;30;20426;-40
2020/12/24 08:51:18;;;;;;;2.25;0.60;;;;;;;7.07;65.46;95223.66;4767767;30;20086;-44
2020/12/24 08:54:06;;;;;;;0.68;0.40;;;;;;;7.10;65.45;95216.84;4768049;30;20086;-40
2020/12/24 08:56:34;;;;;;;1.00;0.40;;;;;;;7.10;65.59;95214.94;4769169;30;20519;-42
2020/12/24 08:59:06;;;;;;;1.00;0.45;;;;;;;7.19;65.05;95228.34;4767185;30;20059;-40
2020/12/24 09:01:38;;;;;;;2.00;0.67;;;;;;;7.22;66.46;95228.47;4768911;30;20059;-41
2020/12/24 09:04:13;;;;;;;1.63;0.60;;;;;;;7.31;65.83;95232.97;4768750;30;20515;-42
2020/12/24 09:06:39;;;;;;;2.10;0.68;;;;;;;7.29;65.60;95229.84;4768675;30;20067;-40
2020/12/24 09:09:06;;;;;;;1.38;0.47;;;;;;;7.34;65.83;95229.63;4768286;30;20066;-42
2020/12/24 09:11:32;;;;;;;1.52;0.50;;;;;;;7.18;66.42;95224.84;4767699;30;20060;-45
2020/12/24 09:14:01;;;;;;;1.02;0.50;;;;;;;7.31;66.19;95219.53;4768904;30;20079;-42
2020/12/24 09:16:30;;;;;;;3.42;0.50;;;;;;;7.09;67.21;95226.81;4768178;30;20048;-42
2020/12/24 09:19:01;;;;;;;1.83;0.50;;;;;;;7.29;66.54;95219.88;4767175;30;20059;-46
2020/12/24 09:21:28;;;;;;;1.77;0.57;;;;;;;7.40;66.40;95229.09;4768645;30;20059;-44
2020/12/24 09:24:10;;;;;;;2.03;0.65;;;;;;;7.36;66.61;95209.34;4786853;24;20044;-42
2020/12/24 09:26:43;;;;;;;0.45;0.40;;;;;;;7.53;66.48;95207.63;4767917;30;20087;-42
2020/12/24 09:29:09;;;;;;;1.58;0.68;;;;;;;7.37;66.69;95215.53;4767639;30;20064;-41
2020/12/24 09:31:35;;;;;;;2.33;1.10;;;;;;;7.49;66.69;95207.50;4768236;30;20403;-41
2020/12/24 09:34:02;;;;;;;1.55;0.70;;;;;;;7.55;66.66;95202.72;4766794;30;20090;-42
2020/12/24 09:36:29;;;;;;;2.28;0.60;;;;;;;7.46;66.42;95208.16;4768236;30;20047;-43
2020/12/24 09:38:55;;;;;;;2.45;0.93;;;;;;;7.67;66.25;95205.44;4769286;30;20345;-42
2020/12/24 09:41:22;;;;;;;1.30;0.40;;;;;;;7.77;66.56;95201.56;4771635;30;20499;-41
2020/12/24 09:43:49;;;;;;;1.20;0.43;;;;;;;7.87;65.94;95206.53;4771983;30;20060;-42
2020/12/24 09:46:15;;;;;;;0.85;0.60;;;;;;;7.80;66.07;95200.88;4771341;30;20429;-40
2020/12/24 09:48:42;;;;;;;3.72;0.50;;;;;;;7.59;65.97;95193.66;4770897;30;20056;-41
2020/12/24 09:51:09;;;;;;;1.10;0.52;;;;;;;7.60;66.15;95195.22;4771599;30;20063;-40
2020/12/24 09:53:35;;;;;;;0.88;0.55;;;;;;;7.76;65.24;95184.59;4771754;30;20063;-41
2020/12/24 09:56:02;;;;;;;1.45;0.60;;;;;;;7.91;64.93;95191.28;4770032;30;20395;-40
2020/12/24 09:58:28;;;;;;;1.05;0.73;;;;;;;7.62;65.54;95184.91;4771125;30;20062;-40
2020/12/24 10:00:54;;;;;;;1.30;0.70;;;;;;;7.95;64.70;95174.13;4772405;30;20509;-41
2020/12/24 10:03:21;;;;;;;1.60;0.60;;;;;;;7.82;64.23;95166.34;4771615;30;20059;-40
2020/12/24 10:05:47;;;;;;;3.83;0.52;;;;;;;7.73;64.96;95163.72;4771467;30;20146;-40
2020/12/24 10:08:14;;;;;;;1.20;0.50;;;;;;;7.91;64.32;95172.44;4771142;30;20086;-40
2020/12/24 10:10:42;;;;;;;1.13;0.50;;;;;;;7.99;64.07;95176.94;4772574;30;20055;-40
2020/12/24 10:13:09;;;;;;;1.58;0.52;;;;;;;8.00;64.51;95173.13;4771716;30;20506;-41
2020/12/24 10:15:35;;;;;;;1.48;0.57;;;;;;;8.04;63.90;95165.94;4771556;30;20067;-40
2020/12/24 10:18:02;;;;;;;0.68;0.43;;;;;;;7.99;64.52;95166.16;4771280;30;20064;-42
2020/12/24 10:20:28;;;;;;;1.95;0.80;;;;;;;8.24;63.90;95155.41;4772168;30;20056;-45
2020/12/24 10:22:55;;;;;;;1.35;1.08;;;;;;;8.28;63.78;95153.63;4772041;30;20067;-41
2020/12/24 10:25:21;;;;;;;1.60;0.68;;;;;;;7.96;64.48;95139.88;4771019;30;20134;-41
2020/12/24 10:27:47;;;;;;;0.95;0.50;;;;;;;8.00;64.48;95135.41;4770310;30;20125;-42
2020/12/24 10:30:13;;;;;;;3.22;0.50;;;;;;;7.93;64.66;95121.72;4771733;30;20068;-40
2020/12/24 10:32:40;;;;;;;2.85;0.60;;;;;;;8.09;65.00;95127.22;4771490;30;20070;-40
2020/12/24 10:35:07;;;;;;;1.17;0.40;;;;;;;7.91;63.88;95094.31;4771241;30;20063;-40
2020/12/24 10:37:34;;;;;;;1.13;0.50;;;;;;;8.00;64.52;95108.47;4770657;30;20055;-41
2020/12/24 10:40:04;;;;;;;0.90;0.35;;;;;;;8.20;63.12;95122.97;4771229;30;20142;-41
2020/12/24 10:42:33;;;;;;;4.97;2.53;;;;;;;8.15;63.30;95102.41;4770686;30;20066;-42
2020/12/24 10:45:00;;;;;;;1.73;0.70;;;;;;;8.06;63.79;95109.84;4771267;30;20479;-40
2020/12/24 10:47:29;;;;;;;2.72;0.60;;;;;;;7.97;63.75;95099.16;4770734;30;20494;-44
2020/12/24 10:49:55;;;;;;;1.00;0.40;;;;;;;7.93;63.91;95076.72;4771093;30;20063;-43
2020/12/24 10:52:22;;;;;;;2.65;0.70;;;;;;;8.09;63.40;95101.09;4771763;30;20071;-42
2020/12/24 10:54:54;;;;;;;2.40;0.70;;;;;;;7.92;63.95;95095.88;4769703;30;20476;-44
2020/12/24 10:57:21;;;;;;;0.93;0.70;;;;;;;7.97;64.18;95095.69;4770107;30;20138;-40
2020/12/24 10:59:47;;;;;;;0.93;0.60;;;;;;;8.19;63.35;95087.16;4770457;30;20529;-40
2020/12/24 11:02:13;;;;;;;2.78;0.60;;;;;;;8.34;62.25;95082.19;4770903;30;20051;-40
2020/12/24 11:04:39;;;;;;;1.35;0.52;;;;;;;8.43;62.14;95074.81;4769360;30;20058;-41
2020/12/24 11:07:06;;;;;;;1.52;0.57;;;;;;;8.54;61.71;95081.28;4770561;30;20597;-41
2020/12/24 11:09:32;;;;;;;2.67;0.60;;;;;;;8.59;61.03;95081.06;4769782;29;20056;-41
2020/12/24 11:11:58;;;;;;;1.15;0.60;;;;;;;8.69;60.86;95079.81;4770197;30;20146;-43
2020/12/24 11:14:25;;;;;;;6.60;1.67;;;;;;;8.82;59.72;95067.09;4770068;30;20051;-43
2020/12/24 11:16:51;;;;;;;2.50;0.80;;;;;;;8.91;59.87;95070.44;4769897;30;20520;-43
2020/12/24 11:19:17;;;;;;;2.65;0.60;;;;;;;9.26;58.24;95083.34;4769469;30;20062;-44
2020/12/24 11:21:43;;;;;;;2.97;0.60;;;;;;;9.70;57.02;95094.16;4768918;30;20533;-43
2020/12/24 11:24:10;;;;;;;1.00;0.60;;;;;;;9.87;55.47;95082.22;4769701;30;20163;-44
2020/12/24 11:26:37;;;;;;;2.47;0.60;;;;;;;10.20;54.16;95068.34;4770028;30;20047;-44
2020/12/24 11:29:05;;;;;;;2.45;0.70;;;;;;;10.31;54.30;95074.06;4769118;30;20144;-43
2020/12/24 11:31:35;;;;;;;1.17;0.50;;;;;;;10.39;53.59;95067.66;4770298;30;20083;-42
2020/12/24 11:34:03;;;;;;;1.63;0.60;;;;;;;10.33;54.04;95064.44;4770366;30;20056;-42
2020/12/24 11:36:30;;;;;;;2.85;0.70;;;;;;;10.17;54.65;95069.84;4769773;30;20056;-41
2020/12/24 11:38:56;;;;;;;1.25;0.50;;;;;;;9.90;54.71;95054.50;4769092;30;20143;-40
2020/12/24 11:41:25;;;;;;;1.55;0.50;;;;;;;9.42;56.16;95069.88;4770015;30;20063;-43
2020/12/24 11:43:53;;;;;;;1.70;0.50;;;;;;;9.56;56.03;95062.94;4769613;30;20066;-43
2020/12/24 11:46:22;;;;;;;3.67;0.70;;;;;;;9.77;55.08;95059.22;4769600;30;20052;-41